createdAt,value
2023-03-20T00:00:29.779Z,95245.75
2023-03-20T00:02:56.161Z,95247.41
2023-03-20T00:05:22.503Z,95246.22
2023-03-20T00:07:48.886Z,95246.67
2023-03-20T00:10:15.232Z,95242.02
2023-03-20T00:12:41.609Z,95236.50
2023-03-20T00:15:07.952Z,95228.41
2023-03-20T00:17:34.335Z,95229.83
2023-03-20T00:20:00.677Z,95231.81
2023-03-20T00:22:28.141Z,95227.72
2023-03-20T00:24:54.501Z,95230.39
2023-03-20T00:27:20.865Z,95226.06
2023-03-20T00:29:47.207Z,95222.79
2023-03-20T00:32:13.634Z,95218.56
2023-03-20T00:34:39.930Z,95216.81
2023-03-20T00:37:06.316Z,95219.48
2023-03-20T00:39:32.670Z,95216.91
2023-03-20T00:41:59.062Z,95212.25
2023-03-20T00:44:25.465Z,95215.39
2023-03-20T00:46:51.847Z,95216.58
2023-03-20T00:49:18.191Z,95219.25
2023-03-20T00:51:44.620Z,95214.92
2023-03-20T00:54:10.960Z,95208.25
2023-03-20T00:56:37.322Z,95211.19
2023-03-20T00:59:03.659Z,95213.77
2023-03-20T01:01:30.065Z,95210.83
2023-03-20T01:03:56.395Z,95212.58
2023-03-20T01:06:22.798Z,95215.52
2023-03-20T01:08:49.129Z,95204.85
2023-03-20T01:11:15.508Z,95200.30
2023-03-20T01:13:41.886Z,95204.03
2023-03-20T01:16:08.285Z,95200.75
2023-03-20T01:18:34.610Z,95204.95
2023-03-20T01:21:01.014Z,95200.75
2023-03-20T01:23:27.346Z,95196.98
2023-03-20T01:25:53.759Z,95202.50
2023-03-20T01:28:20.181Z,95194.41
2023-03-20T01:30:46.561Z,95196.39
2023-03-20T01:33:12.959Z,95202.27
2023-03-20T01:35:39.304Z,95195.92
2023-03-20T01:38:05.619Z,95204.02
2023-03-20T01:40:32.003Z,95204.94
2023-03-20T01:42:58.351Z,95199.78
2023-03-20T01:45:24.737Z,95204.11
2023-03-20T01:47:51.076Z,95207.27
2023-03-20T01:50:17.567Z,95208.09
2023-03-20T01:52:43.918Z,95205.98
2023-03-20T01:55:10.337Z,95208.20
2023-03-20T01:57:36.671Z,95207.83
2023-03-20T02:00:03.082Z,95203.14
2023-03-20T02:02:29.453Z,95209.21
2023-03-20T02:04:55.875Z,95213.44
2023-03-20T02:07:22.193Z,95206.77
2023-03-20T02:09:48.610Z,95198.91
2023-03-20T02:12:14.951Z,95205.11
2023-03-20T02:14:41.340Z,95195.28
2023-03-20T02:17:07.682Z,95197.48
2023-03-20T02:19:34.077Z,95192.34
2023-03-20T02:22:00.411Z,95188.14
2023-03-20T02:24:26.794Z,95190.72
2023-03-20T02:26:53.141Z,95198.44
2023-03-20T02:29:19.522Z,95198.91
2023-03-20T02:31:45.862Z,95201.11
2023-03-20T02:34:12.264Z,95200.75
2023-03-20T02:36:38.603Z,95207.55
2023-03-20T02:39:04.985Z,95200.75
2023-03-20T02:41:31.337Z,95202.98
2023-03-20T02:43:57.716Z,95200.41
2023-03-20T02:46:25.070Z,95200.14
2023-03-20T02:48:50.462Z,95201.80
2023-03-20T02:51:16.796Z,95205.78
2023-03-20T02:53:43.180Z,95200.63
2023-03-20T02:56:09.559Z,95195.12
2023-03-20T02:58:36.000Z,95194.88
2023-03-20T03:01:02.355Z,95188.55
2023-03-20T03:03:28.727Z,95184.22
2023-03-20T03:05:55.066Z,95182.11
2023-03-20T03:08:21.454Z,95176.63
2023-03-20T03:10:47.807Z,95183.86
2023-03-20T03:13:14.224Z,95184.81
2023-03-20T03:15:40.641Z,95188.77
2023-03-20T03:18:06.954Z,95188.77
2023-03-20T03:20:33.388Z,95186.78
2023-03-20T03:22:59.802Z,95194.03
2023-03-20T03:25:26.186Z,95185.13
2023-03-20T03:27:52.617Z,95183.84
2023-03-20T03:30:19.017Z,95182.19
2023-03-20T03:32:45.462Z,95184.30
2023-03-20T03:35:11.771Z,95180.91
2023-03-20T03:37:38.153Z,95188.98
2023-03-20T03:40:04.508Z,95186.88
2023-03-20T03:42:30.919Z,95186.05
2023-03-20T03:44:57.262Z,95186.54
2023-03-20T03:47:23.651Z,95187.23
2023-03-20T03:49:51.056Z,95185.72
2023-03-20T03:52:17.425Z,95190.95
2023-03-20T03:54:43.795Z,95190.03
2023-03-20T03:57:10.187Z,95187.34
2023-03-20T03:59:36.570Z,95192.39
2023-03-20T04:02:02.992Z,95190.64
2023-03-20T04:04:29.397Z,95192.48
2023-03-20T04:06:55.769Z,95184.42
2023-03-20T04:09:22.110Z,95186.05
2023-03-20T04:11:48.495Z,95181.73
2023-03-20T04:14:14.835Z,95180.44
2023-03-20T04:16:41.237Z,95180.22
2023-03-20T04:19:07.566Z,95179.06
2023-03-20T04:21:33.952Z,95179.89
2023-03-20T04:24:00.333Z,95175.07
2023-03-20T04:26:26.720Z,95172.62
2023-03-20T04:28:53.070Z,95178.02
2023-03-20T04:31:19.522Z,95177.09
2023-03-20T04:33:45.813Z,95174.61
2023-03-20T04:36:12.233Z,95171.22
2023-03-20T04:38:38.565Z,95174.98
2023-03-20T04:41:06.901Z,95175.53
2023-03-20T04:43:31.294Z,95172.96
2023-03-20T04:45:57.684Z,95171.58
2023-03-20T04:48:24.072Z,95171.12
2023-03-20T04:50:50.460Z,95175.67
2023-03-20T04:53:16.812Z,95179.08
2023-03-20T04:55:43.187Z,95179.52
2023-03-20T04:58:09.575Z,95182.80
2023-03-20T05:00:35.972Z,95191.72
2023-03-20T05:03:02.303Z,95194.30
2023-03-20T05:05:28.688Z,95193.70
2023-03-20T05:07:55.065Z,95202.25
2023-03-20T05:10:21.453Z,95203.67
2023-03-20T05:12:47.799Z,95202.16
2023-03-20T05:15:14.190Z,95207.67
2023-03-20T05:17:40.555Z,95211.41
2023-03-20T05:20:06.933Z,95213.06
2023-03-20T05:22:33.266Z,95210.81
2023-03-20T05:24:59.655Z,95214.80
2023-03-20T05:27:26.012Z,95214.80
2023-03-20T05:29:52.401Z,95219.12
2023-03-20T05:32:18.743Z,95216.09
2023-03-20T05:34:45.134Z,95225.92
2023-03-20T05:37:11.481Z,95220.56
2023-03-20T05:39:37.870Z,95224.18
2023-03-20T05:42:04.238Z,95226.27
2023-03-20T05:44:30.616Z,95229.93
2023-03-20T05:46:56.997Z,95223.83
2023-03-20T05:49:23.376Z,95221.72
2023-03-20T05:51:49.717Z,95227.59
2023-03-20T05:54:16.148Z,95226.77
2023-03-20T05:56:42.541Z,95227.14
2023-03-20T05:59:08.884Z,95230.44
2023-03-20T06:01:35.256Z,95234.67
2023-03-20T06:04:01.700Z,95232.66
2023-03-20T06:06:27.984Z,95229.34
2023-03-20T06:08:54.371Z,95224.66
2023-03-20T06:11:20.715Z,95225.30
2023-03-20T06:13:47.105Z,95224.00
2023-03-20T06:16:13.552Z,95222.72
2023-03-20T06:18:39.829Z,95221.20
2023-03-20T06:21:06.214Z,95218.39
2023-03-20T06:23:32.604Z,95220.75
2023-03-20T06:25:58.937Z,95225.44
2023-03-20T06:28:25.354Z,95228.84
2023-03-20T06:30:51.905Z,95232.57
2023-03-20T06:33:18.166Z,95231.06
2023-03-20T06:35:44.472Z,95226.88
2023-03-20T06:38:10.868Z,95232.48
2023-03-20T06:40:37.190Z,95228.27
2023-03-20T06:43:03.607Z,95226.52
2023-03-20T06:45:29.935Z,95228.86
2023-03-20T06:47:56.339Z,95232.72
2023-03-20T06:50:22.685Z,95233.19
2023-03-20T06:52:49.099Z,95229.92
2023-03-20T06:55:15.443Z,95228.27
2023-03-20T06:57:41.864Z,95234.16
2023-03-20T07:00:08.250Z,95226.80
2023-03-20T07:02:34.594Z,95222.11
2023-03-20T07:05:00.991Z,95220.00
2023-03-20T07:07:27.332Z,95211.45
2023-03-20T07:09:53.685Z,95212.17
2023-03-20T07:12:20.109Z,95210.30
2023-03-20T07:14:46.493Z,95207.50
2023-03-20T07:17:12.910Z,95213.47
2023-03-20T07:19:39.269Z,95216.52
2023-03-20T07:22:05.665Z,95213.48
2023-03-20T07:24:32.006Z,95212.69
2023-03-20T07:27:00.809Z,95205.79
2023-03-20T07:29:27.164Z,95214.54
2023-03-20T07:31:53.596Z,95209.66
2023-03-20T07:34:19.907Z,95202.39
2023-03-20T07:36:46.313Z,95201.92
2023-03-20T07:39:12.665Z,95202.62
2023-03-20T07:41:39.050Z,95200.05
2023-03-20T07:44:05.401Z,95204.51
2023-03-20T07:46:31.811Z,95199.81
2023-03-20T07:48:58.164Z,95206.49
2023-03-20T07:51:24.556Z,95210.39
2023-03-20T07:53:50.900Z,95205.56
2023-03-20T07:56:17.303Z,95203.35
2023-03-20T07:58:43.662Z,95204.88
2023-03-20T08:01:10.099Z,95200.18
2023-03-20T08:03:36.708Z,95205.13
2023-03-20T08:06:02.977Z,95179.67
2023-03-20T08:08:29.329Z,95210.62
2023-03-20T08:10:55.717Z,95213.92
2023-03-20T08:13:22.072Z,95212.53
2023-03-20T08:15:48.533Z,95209.39
2023-03-20T08:18:14.922Z,95209.72
2023-03-20T08:20:41.328Z,95205.03
2023-03-20T08:23:07.670Z,95208.56
2023-03-20T08:25:34.144Z,95212.06
2023-03-20T08:28:00.552Z,95211.37
2023-03-20T08:30:27.868Z,95212.56
2023-03-20T08:32:54.152Z,95212.89
2023-03-20T08:35:32.597Z,95215.83
2023-03-20T08:37:46.946Z,95216.42
2023-03-20T08:40:13.358Z,95216.42
2023-03-20T08:42:39.725Z,95218.53
2023-03-20T08:45:06.150Z,95214.30
2023-03-20T08:47:32.505Z,95214.30
2023-03-20T08:49:58.936Z,95209.41
2023-03-20T08:52:25.303Z,95207.41
2023-03-20T08:54:51.700Z,95200.14
2023-03-20T08:57:18.067Z,95195.67
2023-03-20T08:59:44.449Z,95198.02
2023-03-20T09:02:10.946Z,95186.53
2023-03-20T09:04:37.199Z,95194.98
2023-03-20T09:07:03.544Z,95196.95
2023-03-20T09:09:29.956Z,95195.44
2023-03-20T09:11:56.272Z,95186.18
2023-03-20T09:14:22.668Z,95187.93
2023-03-20T09:16:49.026Z,95187.36
2023-03-20T09:19:15.426Z,95177.73
2023-03-20T09:21:41.772Z,95172.94
2023-03-20T09:24:08.154Z,95185.38
2023-03-20T09:26:34.531Z,95181.50
2023-03-20T09:29:00.931Z,95175.64
2023-03-20T09:31:27.304Z,95174.35
2023-03-20T09:33:53.688Z,95176.33
2023-03-20T09:36:20.050Z,95175.41
2023-03-20T09:38:46.402Z,95167.77
2023-03-20T09:41:12.788Z,95162.97
2023-03-20T09:43:39.176Z,95159.92
2023-03-20T09:46:05.598Z,95153.46
2023-03-20T09:48:31.942Z,95149.38
2023-03-20T09:50:58.354Z,95146.55
2023-03-20T09:53:24.735Z,95142.68
2023-03-20T09:55:51.136Z,95128.25
2023-03-20T09:58:17.500Z,95128.25
2023-03-20T10:00:43.861Z,95118.52
2023-03-20T10:03:11.530Z,95099.05
2023-03-20T10:05:38.210Z,95099.05
2023-03-20T10:08:04.337Z,95081.73
2023-03-20T10:10:30.657Z,95081.73
2023-03-20T10:12:57.051Z,95103.47
2023-03-20T10:15:23.400Z,95094.59
2023-03-20T10:17:49.776Z,95082.37
2023-03-20T10:20:16.154Z,95081.69
2023-03-20T10:22:42.520Z,95081.44
2023-03-20T10:25:08.937Z,95081.30
2023-03-20T10:27:35.269Z,95078.72
2023-03-20T10:30:01.677Z,95074.17
2023-03-20T10:32:28.027Z,95073.70
2023-03-20T10:34:54.563Z,95076.14
2023-03-20T10:37:20.909Z,95069.80
2023-03-20T10:39:47.398Z,95067.11
2023-03-20T10:42:13.762Z,95064.75
2023-03-20T10:44:43.114Z,95043.17
2023-03-20T10:47:09.557Z,95043.17
2023-03-20T10:49:35.866Z,95056.72
2023-03-20T10:52:02.236Z,95056.72
2023-03-20T10:54:28.642Z,95049.80
2023-03-20T10:56:54.972Z,95049.80
2023-03-20T10:59:21.361Z,95037.25
2023-03-20T11:01:47.701Z,95037.25
2023-03-20T11:04:14.137Z,95034.32
2023-03-20T11:06:40.435Z,95033.13
2023-03-20T11:09:06.883Z,95018.80
2023-03-20T11:11:33.234Z,95018.80
2023-03-20T11:13:59.617Z,95019.51
2023-03-20T11:16:26.058Z,95013.73
2023-03-20T11:18:52.387Z,95012.80
2023-03-20T11:21:18.742Z,95006.30
2023-03-20T11:23:45.122Z,95004.75
2023-03-20T11:26:11.496Z,94998.56
2023-03-20T11:28:37.892Z,94995.82
2023-03-20T11:31:05.396Z,94995.82
2023-03-20T11:33:30.613Z,94992.30
2023-03-20T11:35:57.013Z,94984.88
2023-03-20T11:38:23.370Z,94963.91
2023-03-20T11:40:49.713Z,94963.91
2023-03-20T11:43:16.129Z,94966.39
2023-03-20T11:45:42.520Z,94966.39
2023-03-20T11:48:08.848Z,94952.07
2023-03-20T11:50:35.629Z,94929.47
2023-03-20T11:53:01.574Z,94952.37
2023-03-20T11:55:27.922Z,94929.71
2023-03-20T11:57:54.306Z,94919.38
2023-03-20T12:00:20.665Z,94937.41
2023-03-20T12:02:47.136Z,94934.45
2023-03-20T12:05:15.725Z,94934.77
2023-03-20T12:07:39.850Z,94929.48
2023-03-20T12:10:06.180Z,94925.34
2023-03-20T12:12:32.627Z,94915.48
2023-03-20T12:14:58.966Z,94915.28
2023-03-20T12:17:25.375Z,94915.28
2023-03-20T12:19:51.728Z,94885.31
2023-03-20T12:22:18.134Z,94885.31
2023-03-20T12:24:44.489Z,94906.27
2023-03-20T12:27:10.988Z,94885.42
2023-03-20T12:29:37.397Z,94885.42
2023-03-20T12:32:03.792Z,94899.83
2023-03-20T12:34:30.190Z,94906.75
2023-03-20T12:36:56.573Z,94893.64
2023-03-20T12:39:22.937Z,94877.40
2023-03-20T12:41:49.335Z,94892.81
2023-03-20T12:44:15.691Z,94891.38
2023-03-20T12:46:42.095Z,94889.30
2023-03-20T12:49:08.423Z,94882.58
2023-03-20T12:51:34.861Z,94882.58
2023-03-20T12:54:01.203Z,94875.86
2023-03-20T12:56:27.649Z,94871.02
2023-03-20T12:58:54.019Z,94860.42
2023-03-20T13:01:20.436Z,94860.11
2023-03-20T13:03:46.859Z,94857.61
2023-03-20T13:06:13.292Z,94857.38
2023-03-20T13:08:39.619Z,94854.18
2023-03-20T13:11:06.004Z,94850.92
2023-03-20T13:13:32.357Z,94851.53
2023-03-20T13:15:59.295Z,94852.45
2023-03-20T13:18:25.132Z,94844.55
2023-03-20T13:20:51.502Z,94845.99
2023-03-20T13:23:17.856Z,94839.53
2023-03-20T13:25:44.252Z,94835.45
2023-03-20T13:28:10.590Z,94830.02
2023-03-20T13:30:37.229Z,94824.33
2023-03-20T13:33:03.389Z,94826.63
2023-03-20T13:35:29.831Z,94824.00
2023-03-20T13:37:56.210Z,94820.86
2023-03-20T13:40:22.616Z,94817.93
2023-03-20T13:42:49.079Z,94809.52
2023-03-20T13:45:15.461Z,94786.64
2023-03-20T13:47:41.829Z,94806.99
2023-03-20T13:50:08.266Z,94794.56
2023-03-20T13:52:34.584Z,94801.09
2023-03-20T13:55:00.978Z,94797.89
2023-03-20T13:57:27.341Z,94783.41
2023-03-20T13:59:53.730Z,94794.22
2023-03-20T14:02:20.080Z,94793.46
2023-03-20T14:04:46.483Z,94780.19
2023-03-20T14:07:12.824Z,94780.19
2023-03-20T14:09:39.221Z,94775.84
2023-03-20T14:12:05.561Z,94784.02
2023-03-20T14:14:31.973Z,94779.17
2023-03-20T14:16:58.332Z,94782.19
2023-03-20T14:19:24.749Z,94779.27
2023-03-20T14:21:51.088Z,94777.30
2023-03-20T14:24:17.502Z,94773.91
2023-03-20T14:26:43.853Z,94769.25
2023-03-20T14:29:10.261Z,94769.25
2023-03-20T14:31:38.070Z,94765.18
2023-03-20T14:34:04.781Z,94761.58
2023-03-20T14:36:31.086Z,94762.84
2023-03-20T14:38:57.466Z,94759.50
2023-03-20T14:41:23.854Z,94743.39
2023-03-20T14:43:50.225Z,94751.13
2023-03-20T14:46:16.564Z,94734.81
2023-03-20T14:48:42.954Z,94747.38
2023-03-20T14:51:09.299Z,94749.77
2023-03-20T14:53:35.691Z,94755.13
2023-03-20T14:56:02.046Z,94745.42
2023-03-20T14:58:28.455Z,94746.59
2023-03-20T15:00:54.833Z,94752.03
2023-03-20T15:03:21.204Z,94737.39
2023-03-20T15:05:47.558Z,94731.75
2023-03-20T15:08:13.935Z,94731.75
2023-03-20T15:10:40.287Z,94750.49
2023-03-20T15:13:06.674Z,94738.00
2023-03-20T15:15:33.023Z,94738.00
2023-03-20T15:17:59.409Z,94752.48
2023-03-20T15:20:25.782Z,94749.67
2023-03-20T15:22:52.138Z,94751.05
2023-03-20T15:25:18.721Z,94743.22
2023-03-20T15:27:45.126Z,94744.31
2023-03-20T15:30:11.471Z,94747.99
2023-03-20T15:32:37.877Z,94736.44
2023-03-20T15:35:04.206Z,94740.63
2023-03-20T15:37:30.590Z,94740.63
2023-03-20T15:39:56.950Z,94735.63
2023-03-20T15:42:23.329Z,94729.28
2023-03-20T15:44:49.701Z,94729.28
2023-03-20T15:47:16.046Z,94736.30
2023-03-20T15:49:42.407Z,94740.98
2023-03-20T15:52:08.843Z,94732.84
2023-03-20T15:54:35.187Z,94735.17
2023-03-20T15:57:01.584Z,94735.17
2023-03-20T15:59:27.925Z,94731.30
2023-03-20T16:01:54.355Z,94741.80
2023-03-20T16:04:20.692Z,94747.58
2023-03-20T16:06:47.089Z,94747.58
2023-03-20T16:09:13.418Z,94743.19
2023-03-20T16:11:39.834Z,94746.27
2023-03-20T16:14:06.152Z,94746.27
2023-03-20T16:16:32.581Z,94743.92
2023-03-20T16:18:59.430Z,94743.92
2023-03-20T16:21:25.293Z,94763.85
2023-03-20T16:23:51.641Z,94765.14
2023-03-20T16:26:18.045Z,94754.35
2023-03-20T16:28:44.388Z,94754.35
2023-03-20T16:31:10.876Z,94772.32
2023-03-20T16:33:37.134Z,94771.11
2023-03-20T16:36:03.653Z,94771.11
2023-03-20T16:38:29.867Z,94766.72
2023-03-20T16:40:56.289Z,94766.72
2023-03-20T16:43:22.633Z,94784.49
2023-03-20T16:45:49.048Z,94784.49
2023-03-20T16:48:15.394Z,94774.47
2023-03-20T16:50:41.807Z,94784.14
2023-03-20T16:53:08.157Z,94762.58
2023-03-20T16:55:34.541Z,94775.22
2023-03-20T16:58:00.922Z,94775.72
2023-03-20T17:00:27.350Z,94776.46
2023-03-20T17:02:53.644Z,94775.99
2023-03-20T17:05:20.056Z,94780.60
2023-03-20T17:07:46.396Z,94779.16
2023-03-20T17:10:12.788Z,94777.00
2023-03-20T17:12:39.124Z,94780.60
2023-03-20T17:15:05.532Z,94785.41
2023-03-20T17:17:31.866Z,94784.03
2023-03-20T17:19:58.248Z,94782.63
2023-03-20T17:22:24.627Z,94770.25
2023-03-20T17:24:50.999Z,94780.31
2023-03-20T17:27:17.344Z,94780.90
2023-03-20T17:29:43.722Z,94772.69
2023-03-20T17:32:10.094Z,94772.69
2023-03-20T17:34:36.434Z,94766.85
2023-03-20T17:37:02.770Z,94772.34
2023-03-20T17:42:09.478Z,94781.16
2023-03-20T17:44:35.811Z,94781.16
2023-03-20T17:47:02.220Z,94785.74
2023-03-20T17:49:28.575Z,94793.89
2023-03-20T17:51:54.937Z,94806.39
2023-03-20T17:54:21.489Z,94807.53
2023-03-20T17:56:47.654Z,94810.03
2023-03-20T17:59:14.000Z,94814.14
2023-03-20T18:01:40.452Z,94787.33
2023-03-20T18:04:06.803Z,94804.02
2023-03-20T18:06:33.169Z,94792.02
2023-03-20T18:08:59.525Z,94804.39
2023-03-20T18:11:25.896Z,94811.31
2023-03-20T18:13:52.292Z,94786.16
2023-03-20T18:16:18.736Z,94808.89
2023-03-20T18:18:45.003Z,94795.59
2023-03-20T18:21:11.388Z,94795.59
2023-03-20T18:23:37.720Z,94803.52
2023-03-20T18:26:04.110Z,94789.67
2023-03-20T18:28:30.441Z,94799.47
2023-03-20T18:30:56.848Z,94796.89
2023-03-20T18:33:23.204Z,94805.08
2023-03-20T18:35:49.698Z,94786.74
2023-03-20T18:38:15.986Z,94811.84
2023-03-20T18:40:42.375Z,94814.38
2023-03-20T18:43:08.698Z,94815.60
2023-03-20T18:45:35.115Z,94813.02
2023-03-20T18:48:01.450Z,94813.02
2023-03-20T18:50:29.047Z,94818.03
2023-03-20T18:52:54.179Z,94816.33
2023-03-20T18:55:20.564Z,94814.22
2023-03-20T18:57:48.117Z,94824.89
2023-03-20T19:00:13.288Z,94819.73
2023-03-20T19:02:39.617Z,94825.74
2023-03-20T19:05:06.013Z,94825.74
2023-03-20T19:07:32.334Z,94835.55
2023-03-20T19:09:58.712Z,94834.61
2023-03-20T19:12:25.053Z,94829.85
2023-03-20T19:14:51.425Z,94837.39
2023-03-20T19:17:17.759Z,94837.89
2023-03-20T19:19:45.809Z,94835.31
2023-03-20T19:22:22.587Z,94843.52
2023-03-20T19:24:36.877Z,94842.34
2023-03-20T19:27:03.213Z,94850.35
2023-03-20T19:29:29.700Z,94844.05
2023-03-20T19:31:56.045Z,94852.26
2023-03-20T19:35:00.969Z,94840.81
2023-03-20T19:36:48.864Z,94846.86
2023-03-20T19:39:15.134Z,94844.07
2023-03-20T19:41:41.462Z,94851.81
2023-03-20T19:44:07.844Z,94851.81
2023-03-20T19:46:42.216Z,94846.80
2023-03-20T19:49:00.611Z,94849.02
2023-03-20T19:51:26.928Z,94836.09
2023-03-20T19:53:53.301Z,94836.09
2023-03-20T19:56:19.665Z,94866.05
2023-03-20T19:58:46.055Z,94866.05
2023-03-20T20:01:15.217Z,94851.00
2023-03-20T20:03:38.786Z,94863.13
2023-03-20T20:06:05.119Z,94872.30
2023-03-20T20:08:46.551Z,94864.87
2023-03-20T20:10:57.838Z,94856.81
2023-03-20T20:13:25.013Z,94863.73
2023-03-20T20:15:50.556Z,94872.09
2023-03-20T20:18:16.943Z,94842.35
2023-03-20T20:21:22.208Z,94842.35
2023-03-20T20:23:09.680Z,94865.02
2023-03-20T20:25:36.007Z,94860.80
2023-03-20T20:28:02.418Z,94860.80
2023-03-20T20:30:28.749Z,94863.99
2023-03-20T20:33:02.970Z,94863.99
2023-03-20T20:35:44.580Z,94863.99
2023-03-20T20:40:33.066Z,94868.33
2023-03-20T20:43:01.887Z,94866.57
2023-03-20T20:45:25.796Z,94858.94
2023-03-20T20:47:52.194Z,94855.08
2023-03-20T20:50:18.529Z,94847.70
2023-03-20T20:52:44.875Z,94851.67
2023-03-20T20:55:23.643Z,94853.46
2023-03-20T20:57:37.689Z,94856.36
2023-03-20T21:00:04.083Z,94844.82
2023-03-20T21:02:30.465Z,94857.20
2023-03-20T21:04:56.810Z,94857.20
2023-03-20T21:07:23.142Z,94862.36
2023-03-20T21:09:49.528Z,94873.62
2023-03-20T21:12:32.375Z,94876.34
2023-03-20T21:14:42.274Z,94869.89
2023-03-20T21:17:08.607Z,94860.92
2023-03-20T21:19:35.020Z,94860.92
2023-03-20T21:22:01.375Z,94871.77
2023-03-20T21:24:33.097Z,94861.95
2023-03-20T21:26:54.080Z,94867.22
2023-03-20T21:29:20.468Z,94867.83
2023-03-20T21:31:46.945Z,94867.83
2023-03-20T21:34:13.177Z,94862.31
2023-03-20T21:36:39.570Z,94855.41
2023-03-20T21:39:08.671Z,94855.41
2023-03-20T21:41:32.271Z,94861.02
2023-03-20T21:44:01.273Z,94857.16
2023-03-20T21:46:59.995Z,94857.16
2023-03-20T21:52:23.925Z,94834.56
2023-03-20T21:54:45.984Z,94850.35
2023-03-20T21:56:48.849Z,94848.95
2023-03-20T21:59:20.780Z,94843.91
2023-03-20T22:04:02.901Z,94850.23
2023-03-20T22:06:37.266Z,94854.11
2023-03-20T22:09:34.051Z,94856.69
2023-03-20T22:11:38.439Z,94841.41
2023-03-20T22:14:20.036Z,94841.41
2023-03-20T22:19:00.066Z,94835.08
2023-03-20T22:21:16.025Z,94855.55
2023-03-20T22:33:49.476Z,94847.36
2023-03-20T22:38:41.633Z,94839.30
2023-03-20T22:40:45.629Z,94823.77
2023-03-20T22:45:02.037Z,94836.84
2023-03-20T22:47:24.047Z,94830.53
2023-03-20T22:49:50.389Z,94830.53
2023-03-20T22:52:29.062Z,94836.16
2023-03-20T22:54:43.145Z,94831.11
2023-03-20T22:57:09.526Z,94831.11
2023-03-20T22:59:35.862Z,94823.98
2023-03-20T23:02:02.255Z,94823.16
2023-03-20T23:04:30.110Z,94822.34
2023-03-20T23:06:55.007Z,94819.91
2023-03-20T23:09:21.347Z,94809.92
2023-03-20T23:11:47.738Z,94809.92
2023-03-20T23:14:21.351Z,94810.53
2023-03-20T23:16:40.494Z,94808.77
2023-03-20T23:19:06.848Z,94805.52
2023-03-20T23:21:33.233Z,94805.52
2023-03-20T23:23:59.562Z,94791.14
2023-03-20T23:26:25.935Z,94791.14
2023-03-20T23:28:52.273Z,94792.06
2023-03-20T23:31:18.721Z,94796.72
2023-03-20T23:33:44.997Z,94796.60
2023-03-20T23:36:24.742Z,94796.60
2023-03-20T23:38:37.730Z,94791.70
2023-03-20T23:41:04.145Z,94791.70
2023-03-20T23:43:30.492Z,94791.23
2023-03-20T23:45:56.969Z,94787.84
2023-03-20T23:48:23.388Z,94787.95
2023-03-20T23:50:53.316Z,94780.22
2023-03-20T23:53:20.587Z,94780.22
2023-03-20T23:55:42.416Z,94775.55
2023-03-20T23:58:08.794Z,94776.28
